createdAt,value
2018-03-24T00:00:26.409Z,24.50
2018-03-24T00:02:53.968Z,21.87
2018-03-24T00:05:21.512Z,30.07
2018-03-24T00:07:49.064Z,27.17
2018-03-24T00:10:16.605Z,28.30
2018-03-24T00:12:44.157Z,25.37
2018-03-24T00:15:12.461Z,28.27
2018-03-24T00:17:40.029Z,25.70
2018-03-24T00:20:08.335Z,25.90
2018-03-24T00:22:36.652Z,27.00
2018-03-24T00:25:04.200Z,27.13
2018-03-24T00:27:31.760Z,26.77
2018-03-24T00:29:59.299Z,24.70
2018-03-24T00:32:26.844Z,24.20
2018-03-24T00:34:54.407Z,22.77
2018-03-24T00:37:21.939Z,24.20
2018-03-24T00:39:50.262Z,22.77
2018-03-24T00:42:17.806Z,23.97
2018-03-24T00:44:45.368Z,25.13
2018-03-24T00:47:12.913Z,23.30
2018-03-24T00:49:40.500Z,23.17
2018-03-24T00:52:08.053Z,24.97
2018-03-24T00:54:35.617Z,22.27
2018-03-24T00:57:03.156Z,22.53
2018-03-24T00:59:30.707Z,22.50
2018-03-24T01:01:58.263Z,22.80
2018-03-24T01:04:25.855Z,23.20
2018-03-24T01:06:53.415Z,21.43
2018-03-24T01:09:20.980Z,23.73
2018-03-24T01:11:48.521Z,24.67
2018-03-24T01:14:16.085Z,24.30
2018-03-24T01:16:43.637Z,23.30
2018-03-24T01:19:11.192Z,22.80
2018-03-24T01:21:39.508Z,24.83
2018-03-24T01:24:07.063Z,24.10
2018-03-24T01:26:34.595Z,24.80
2018-03-24T01:29:02.147Z,24.60
2018-03-24T01:31:30.456Z,24.00
2018-03-24T01:33:58.024Z,24.17
2018-03-24T01:36:26.337Z,23.00
2018-03-24T01:38:54.663Z,23.27
2018-03-24T01:41:22.221Z,24.00
2018-03-24T01:43:50.561Z,25.23
2018-03-24T01:46:18.095Z,26.60
2018-03-24T01:48:46.441Z,23.90
2018-03-24T01:51:13.977Z,24.30
2018-03-24T01:53:53.305Z,23.23
2018-03-24T01:56:20.863Z,24.13
2018-03-24T01:58:48.408Z,22.90
2018-03-24T02:01:16.746Z,24.70
2018-03-24T02:03:44.277Z,23.20
2018-03-24T02:06:11.844Z,26.87
2018-03-24T02:08:39.388Z,24.27
2018-03-24T02:11:06.958Z,25.83
2018-03-24T02:13:35.272Z,26.13
2018-03-24T02:16:02.846Z,26.93
2018-03-24T02:18:31.160Z,27.00
2018-03-24T02:20:59.297Z,23.20
2018-03-24T02:23:27.071Z,23.47
2018-03-24T02:25:54.642Z,24.57
2018-03-24T02:28:22.193Z,24.80
2018-03-24T02:30:49.778Z,25.40
2018-03-24T02:33:18.099Z,25.00
2018-03-24T02:35:45.666Z,26.73
2018-03-24T02:38:13.983Z,25.67
2018-03-24T02:40:42.317Z,27.20
2018-03-24T02:43:09.871Z,25.50
2018-03-24T02:45:37.449Z,25.90
2018-03-24T02:48:05.765Z,24.60
2018-03-24T02:50:33.338Z,24.30
2018-03-24T02:53:01.661Z,22.43
2018-03-24T02:55:29.248Z,23.23
2018-03-24T02:57:56.807Z,22.90
2018-03-24T03:00:25.143Z,22.20
2018-03-24T03:02:52.697Z,24.40
2018-03-24T03:05:20.278Z,24.17
2018-03-24T03:07:48.586Z,22.87
2018-03-24T03:10:16.162Z,22.37
2018-03-24T03:12:44.479Z,25.50
2018-03-24T03:15:12.058Z,24.20
2018-03-24T03:17:39.702Z,25.40
2018-03-24T03:20:07.212Z,22.17
2018-03-24T03:22:35.554Z,24.07
2018-03-24T03:25:03.115Z,21.47
2018-03-24T03:27:30.684Z,24.20
2018-03-24T03:29:59.008Z,23.50
2018-03-24T03:32:26.578Z,22.50
2018-03-24T03:34:54.889Z,24.10
2018-03-24T03:37:22.460Z,23.80
2018-03-24T03:39:50.783Z,21.93
2018-03-24T03:42:18.353Z,31.67
2018-03-24T03:44:45.898Z,27.47
2018-03-24T03:47:13.458Z,26.27
2018-03-24T03:49:41.002Z,24.40
2018-03-24T03:52:09.330Z,24.10
2018-03-24T03:54:36.877Z,24.20
2018-03-24T03:57:05.219Z,23.30
2018-03-24T03:59:32.783Z,22.07
2018-03-24T04:02:00.353Z,22.40
2018-03-24T04:04:28.664Z,21.73
2018-03-24T04:06:56.237Z,23.03
2018-03-24T04:09:24.551Z,23.73
2018-03-24T04:11:52.132Z,26.27
2018-03-24T04:14:19.730Z,23.87
2018-03-24T04:16:47.302Z,24.70
2018-03-24T04:19:15.613Z,24.70
2018-03-24T04:21:43.183Z,25.00
2018-03-24T04:24:10.753Z,24.40
2018-03-24T04:26:38.333Z,25.47
2018-03-24T04:29:05.902Z,25.57
2018-03-24T04:31:33.473Z,21.20
2018-03-24T04:34:01.021Z,24.37
2018-03-24T04:36:28.570Z,22.37
2018-03-24T04:38:56.141Z,24.47
2018-03-24T04:41:23.697Z,23.60
2018-03-24T04:43:51.274Z,23.20
2018-03-24T04:46:18.828Z,25.40
2018-03-24T04:48:46.389Z,24.63
2018-03-24T04:51:13.942Z,23.17
2018-03-24T04:53:41.517Z,23.60
2018-03-24T04:56:09.074Z,23.40
2018-03-24T04:58:36.654Z,24.60
2018-03-24T05:01:04.205Z,24.90
2018-03-24T05:03:31.781Z,25.30
2018-03-24T05:05:59.333Z,24.50
2018-03-24T05:08:26.904Z,27.47
2018-03-24T05:10:54.453Z,25.77
2018-03-24T05:13:22.814Z,25.20
2018-03-24T05:15:50.365Z,24.50
2018-03-24T05:18:17.928Z,25.60
2018-03-24T05:20:46.242Z,27.67
2018-03-24T05:23:13.813Z,28.37
2018-03-24T05:25:42.141Z,24.90
2018-03-24T05:28:09.711Z,26.93
2018-03-24T05:30:38.025Z,27.60
2018-03-24T05:33:05.590Z,26.17
2018-03-24T05:35:33.909Z,24.47
2018-03-24T05:38:01.906Z,26.13
2018-03-24T05:40:29.453Z,22.37
2018-03-24T05:42:57.018Z,24.23
2018-03-24T05:45:24.569Z,24.40
2018-03-24T05:47:52.149Z,25.60
2018-03-24T05:50:19.694Z,22.90
2018-03-24T05:52:48.025Z,22.47
2018-03-24T05:55:15.594Z,23.60
2018-03-24T05:57:43.909Z,23.13
2018-03-24T06:00:11.481Z,24.00
2018-03-24T06:02:39.793Z,26.47
2018-03-24T06:05:07.362Z,26.23
2018-03-24T06:07:35.685Z,26.33
2018-03-24T06:10:03.257Z,25.77
2018-03-24T06:12:30.825Z,30.80
2018-03-24T06:14:58.394Z,26.80
2018-03-24T06:17:25.960Z,25.27
2018-03-24T06:19:53.532Z,26.67
2018-03-24T06:22:21.090Z,27.77
2018-03-24T06:24:48.657Z,26.47
2018-03-24T06:27:16.209Z,27.30
2018-03-24T06:29:43.786Z,25.73
2018-03-24T06:32:11.334Z,25.10
2018-03-24T06:34:38.930Z,25.33
2018-03-24T06:37:09.109Z,24.93
2018-03-24T06:39:36.673Z,24.50
2018-03-24T06:42:04.254Z,27.27
2018-03-24T06:44:31.821Z,27.43
2018-03-24T06:46:59.365Z,24.57
2018-03-24T06:49:26.933Z,25.67
2018-03-24T06:51:54.523Z,25.17
2018-03-24T06:54:22.108Z,26.33
2018-03-24T06:56:49.664Z,24.97
2018-03-24T06:59:17.242Z,27.17
2018-03-24T07:01:44.810Z,23.67
2018-03-24T07:04:12.360Z,26.17
2018-03-24T07:06:39.937Z,24.23
2018-03-24T07:09:08.272Z,23.80
2018-03-24T07:11:35.858Z,29.10
2018-03-24T07:14:03.421Z,26.47
2018-03-24T07:16:31.770Z,24.30
2018-03-24T07:18:59.338Z,24.90
2018-03-24T07:21:26.909Z,25.10
2018-03-24T07:23:54.467Z,26.13
2018-03-24T07:26:22.805Z,27.77
2018-03-24T07:28:50.385Z,27.10
2018-03-24T07:31:17.982Z,24.30
2018-03-24T07:33:45.524Z,25.30
2018-03-24T07:36:13.917Z,23.40
2018-03-24T07:38:41.483Z,25.07
2018-03-24T07:41:09.120Z,24.00
2018-03-24T07:43:36.821Z,23.80
2018-03-24T07:46:04.649Z,22.27
2018-03-24T07:48:33.214Z,21.83
2018-03-24T07:51:00.999Z,24.80
2018-03-24T07:53:28.789Z,23.10
2018-03-24T07:55:57.148Z,21.87
2018-03-24T07:58:24.793Z,24.07
2018-03-24T08:00:52.423Z,23.00
2018-03-24T08:03:20.692Z,23.60
2018-03-24T08:05:48.438Z,21.30
2018-03-24T08:08:17.003Z,21.37
2018-03-24T08:10:44.746Z,26.47
2018-03-24T08:13:12.454Z,22.60
2018-03-24T08:15:40.160Z,21.23
2018-03-24T08:18:07.929Z,21.97
2018-03-24T08:20:35.528Z,22.50
2018-03-24T08:23:03.191Z,23.37
2018-03-24T08:25:31.735Z,21.70
2018-03-24T08:28:00.321Z,19.67
2018-03-24T08:30:27.929Z,21.30
2018-03-24T08:32:55.874Z,20.97
2018-03-24T08:35:24.243Z,19.40
2018-03-24T08:37:51.807Z,21.20
2018-03-24T08:40:19.399Z,19.57
2018-03-24T08:42:46.964Z,19.53
2018-03-24T08:45:14.538Z,19.53
2018-03-24T08:47:42.088Z,18.90
2018-03-24T08:50:09.720Z,20.40
2018-03-24T08:52:37.276Z,18.53
2018-03-24T08:55:04.868Z,19.87
2018-03-24T08:57:32.428Z,19.63
2018-03-24T09:00:00.006Z,18.70
2018-03-24T09:02:27.559Z,19.17
2018-03-24T09:04:55.145Z,18.83
2018-03-24T09:07:22.705Z,18.20
2018-03-24T09:09:50.262Z,17.93
2018-03-24T09:12:17.829Z,17.27
2018-03-24T09:14:45.377Z,19.20
2018-03-24T09:17:12.953Z,19.00
2018-03-24T09:19:40.505Z,16.97
2018-03-24T09:22:08.078Z,17.63
2018-03-24T09:24:35.634Z,18.80
2018-03-24T09:27:03.970Z,17.67
2018-03-24T09:29:31.521Z,17.57
2018-03-24T09:31:59.853Z,18.10
2018-03-24T09:34:27.405Z,18.20
2018-03-24T09:36:55.779Z,17.10
2018-03-24T09:39:23.330Z,16.83
2018-03-24T09:41:50.877Z,19.30
2018-03-24T09:44:19.211Z,18.13
2018-03-24T09:46:46.757Z,18.50
2018-03-24T09:49:15.093Z,15.47
2018-03-24T09:51:42.652Z,16.23
2018-03-24T09:54:10.993Z,15.00
2018-03-24T09:56:38.546Z,15.77
2018-03-24T09:59:06.117Z,14.97
2018-03-24T10:01:33.669Z,16.63
2018-03-24T10:04:02.009Z,15.60
2018-03-24T10:06:30.323Z,14.90
2018-03-24T10:08:57.888Z,15.90
2018-03-24T10:11:25.441Z,15.60
2018-03-24T10:13:53.005Z,14.33
2018-03-24T10:16:20.558Z,14.63
2018-03-24T10:18:48.138Z,13.80
2018-03-24T10:24:32.522Z,14.50
2018-03-24T10:27:00.065Z,14.40
2018-03-24T10:29:27.642Z,14.47
2018-03-24T10:31:55.189Z,13.87
2018-03-24T10:34:22.741Z,15.33
2018-03-24T10:36:51.085Z,14.37
2018-03-24T10:39:18.680Z,13.87
2018-03-24T10:41:46.234Z,14.20
2018-03-24T10:44:13.780Z,14.90
2018-03-24T10:46:41.354Z,15.30
2018-03-24T10:49:08.914Z,13.57
2018-03-24T10:51:36.486Z,16.67
2018-03-24T10:54:04.048Z,16.17
2018-03-24T10:56:31.627Z,15.70
2018-03-24T10:58:59.182Z,15.67
2018-03-24T11:01:26.785Z,14.40
2018-03-24T11:03:54.353Z,15.10
2018-03-24T11:06:21.916Z,15.00
2018-03-24T11:08:49.485Z,13.20
2018-03-24T11:11:17.864Z,13.37
2018-03-24T11:13:45.404Z,15.40
2018-03-24T11:16:12.952Z,16.97
2018-03-24T11:18:40.640Z,13.70
2018-03-24T11:21:09.045Z,13.37
2018-03-24T11:23:36.699Z,13.53
2018-03-24T11:26:04.344Z,14.33
2018-03-24T11:28:32.009Z,13.13
2018-03-24T11:30:59.658Z,14.80
2018-03-24T11:33:27.309Z,13.43
2018-03-24T11:35:54.942Z,15.17
2018-03-24T11:38:22.606Z,16.13
2018-03-24T11:40:50.289Z,16.10
2018-03-24T11:43:18.688Z,16.00
2018-03-24T11:45:46.375Z,14.50
2018-03-24T11:48:14.089Z,13.60
2018-03-24T11:50:41.782Z,14.00
2018-03-24T11:53:09.412Z,17.20
2018-03-24T11:55:37.048Z,16.23
2018-03-24T11:58:04.741Z,15.83
2018-03-24T12:00:32.477Z,16.07
2018-03-24T12:03:00.105Z,17.70
2018-03-24T12:05:27.777Z,17.80
2018-03-24T12:07:56.213Z,17.10
2018-03-24T12:10:24.644Z,16.33
2018-03-24T12:12:53.039Z,17.77
2018-03-24T12:15:20.745Z,15.23
2018-03-24T12:17:48.413Z,15.30
2018-03-24T12:20:16.814Z,16.50
2018-03-24T12:22:45.221Z,18.27
2018-03-24T12:25:12.889Z,16.40
2018-03-24T12:27:41.291Z,18.00
2018-03-24T12:30:08.951Z,17.80
2018-03-24T12:32:36.673Z,17.50
2018-03-24T12:35:04.307Z,17.50
2018-03-24T12:37:33.834Z,17.33
2018-03-24T12:40:01.504Z,17.63
2018-03-24T12:42:29.202Z,17.93
2018-03-24T12:44:56.838Z,16.93
2018-03-24T12:47:24.481Z,18.40
2018-03-24T12:49:52.947Z,17.17
2018-03-24T12:52:20.575Z,17.93
2018-03-24T12:54:49.814Z,17.70
2018-03-24T12:57:17.480Z,16.70
2018-03-24T12:59:45.170Z,18.13
2018-03-24T13:02:13.548Z,16.60
2018-03-24T13:04:41.298Z,17.80
2018-03-24T13:07:12.235Z,16.10
2018-03-24T13:09:45.725Z,17.47
2018-03-24T13:12:13.493Z,16.50
2018-03-24T13:14:41.164Z,16.07
2018-03-24T13:17:12.254Z,17.47
2018-03-24T13:19:41.277Z,16.93
2018-03-24T13:22:08.911Z,18.17
2018-03-24T13:24:37.305Z,16.13
2018-03-24T13:27:05.100Z,16.33
2018-03-24T13:29:32.772Z,16.23
2018-03-24T13:32:00.447Z,17.27
2018-03-24T13:34:32.649Z,22.90
2018-03-24T13:37:05.232Z,20.50
2018-03-24T13:39:33.376Z,17.27
2018-03-24T13:42:01.706Z,17.83
2018-03-24T13:44:30.032Z,17.53
2018-03-24T13:46:57.675Z,17.00
2018-03-24T13:49:25.197Z,15.23
2018-03-24T13:51:53.538Z,15.93
2018-03-24T13:54:21.098Z,15.93
2018-03-24T13:56:48.675Z,16.80
2018-03-24T13:59:16.218Z,14.50
2018-03-24T14:01:43.789Z,16.63
2018-03-24T14:04:11.341Z,16.87
2018-03-24T14:06:39.668Z,17.87
2018-03-24T14:09:07.982Z,15.77
2018-03-24T14:11:35.630Z,15.63
2018-03-24T14:14:03.906Z,16.03
2018-03-24T14:16:31.543Z,15.77
2018-03-24T14:18:59.185Z,16.23
2018-03-24T14:21:26.788Z,15.73
2018-03-24T14:23:55.185Z,26.00
2018-03-24T14:26:22.782Z,18.67
2018-03-24T14:28:50.445Z,16.00
2018-03-24T14:31:18.039Z,17.10
2018-03-24T14:33:45.641Z,15.80
2018-03-24T14:36:13.217Z,17.40
2018-03-24T14:38:40.828Z,16.77
2018-03-24T14:41:08.418Z,17.10
2018-03-24T14:43:36.045Z,15.97
2018-03-24T14:46:03.624Z,17.50
2018-03-24T14:48:32.002Z,17.37
2018-03-24T14:50:59.585Z,17.40
2018-03-24T14:53:27.189Z,17.70
2018-03-24T14:55:54.830Z,18.30
2018-03-24T14:58:23.219Z,18.00
2018-03-24T15:00:50.967Z,16.93
2018-03-24T15:03:18.584Z,18.00
2018-03-24T15:05:46.165Z,15.50
2018-03-24T15:08:14.634Z,16.83
2018-03-24T15:10:42.238Z,16.40
2018-03-24T15:13:10.402Z,19.17
2018-03-24T15:15:38.002Z,16.80
2018-03-24T15:18:06.382Z,18.30
2018-03-24T15:20:34.823Z,16.20
2018-03-24T15:23:02.446Z,17.77
2018-03-24T15:25:30.814Z,17.10
2018-03-24T15:27:58.400Z,17.93
2018-03-24T15:30:38.686Z,16.77
2018-03-24T15:33:19.046Z,18.20
2018-03-24T15:39:08.081Z,17.30
2018-03-24T15:41:35.675Z,17.63
2018-03-24T15:44:03.312Z,16.60
2018-03-24T15:46:31.767Z,17.70
2018-03-24T15:48:59.345Z,18.40
2018-03-24T15:51:27.848Z,17.13
2018-03-24T15:53:56.320Z,17.13
2018-03-24T15:56:24.271Z,16.87
2018-03-24T15:58:52.302Z,16.77
2018-03-24T16:01:19.999Z,16.30
2018-03-24T16:03:48.380Z,16.07
2018-03-24T16:06:16.766Z,18.37
2018-03-24T16:08:44.386Z,17.30
2018-03-24T16:11:11.979Z,17.43
2018-03-24T16:13:39.609Z,15.27
2018-03-24T16:16:07.207Z,16.87
2018-03-24T16:18:34.848Z,19.77
2018-03-24T16:21:02.452Z,18.00
2018-03-24T16:23:30.046Z,15.60
2018-03-24T16:25:57.606Z,15.60
2018-03-24T16:28:25.184Z,16.57
2018-03-24T16:30:52.748Z,17.90
2018-03-24T16:33:20.330Z,19.27
2018-03-24T16:35:47.890Z,16.63
2018-03-24T16:38:15.477Z,16.73
2018-03-24T16:40:43.039Z,18.00
2018-03-24T16:43:10.667Z,17.20
2018-03-24T16:45:39.125Z,18.47
2018-03-24T16:48:06.723Z,24.90
2018-03-24T16:50:34.612Z,26.60
2018-03-24T16:53:02.585Z,26.13
2018-03-24T16:55:30.206Z,28.23
2018-03-24T16:57:57.983Z,21.00
2018-03-24T17:00:25.899Z,17.87
2018-03-24T17:02:54.469Z,17.43
2018-03-24T17:05:22.438Z,16.20
2018-03-24T17:07:50.333Z,19.80
2018-03-24T17:10:18.269Z,18.47
2018-03-24T17:12:46.074Z,17.60
2018-03-24T17:15:13.725Z,17.60
2018-03-24T17:17:41.562Z,19.23
2018-03-24T17:20:09.402Z,20.90
2018-03-24T17:22:37.019Z,18.40
2018-03-24T17:25:04.623Z,16.90
2018-03-24T17:27:32.939Z,18.00
2018-03-24T17:30:00.502Z,18.87
2018-03-24T17:32:28.050Z,15.60
2018-03-24T17:34:56.386Z,18.30
2018-03-24T17:37:23.949Z,16.30
2018-03-24T17:39:51.521Z,14.97
2018-03-24T17:42:19.060Z,15.17
2018-03-24T17:44:47.385Z,18.07
2018-03-24T17:47:14.930Z,16.73
2018-03-24T17:49:42.498Z,17.17
2018-03-24T17:52:10.045Z,15.73
2018-03-24T17:54:38.380Z,14.37
2018-03-24T17:57:05.929Z,15.40
2018-03-24T17:59:33.496Z,15.77
2018-03-24T18:02:01.820Z,16.10
2018-03-24T18:04:29.384Z,15.00
2018-03-24T18:06:56.934Z,16.10
2018-03-24T18:09:29.545Z,15.43
2018-03-24T18:11:57.285Z,15.87
2018-03-24T18:14:25.609Z,15.63
2018-03-24T18:16:53.178Z,16.80
2018-03-24T18:19:20.725Z,15.47
2018-03-24T18:21:49.078Z,18.07
2018-03-24T18:24:16.646Z,14.70
2018-03-24T18:26:44.500Z,17.60
2018-03-24T18:29:12.331Z,18.93
2018-03-24T18:31:40.236Z,18.87
2018-03-24T18:34:08.012Z,18.10
2018-03-24T18:36:35.854Z,16.80
2018-03-24T18:39:10.235Z,16.40
2018-03-24T18:41:38.611Z,16.90
2018-03-24T18:44:06.426Z,15.90
2018-03-24T18:46:34.588Z,15.40
2018-03-24T18:49:02.359Z,15.50
2018-03-24T18:51:30.226Z,15.60
2018-03-24T18:54:04.098Z,15.57
2018-03-24T18:56:32.289Z,16.40
2018-03-24T18:59:00.067Z,16.23
2018-03-24T19:01:28.698Z,18.03
2018-03-24T19:04:02.273Z,17.60
2018-03-24T19:06:30.432Z,19.20
2018-03-24T19:08:58.865Z,17.47
2018-03-24T19:11:26.760Z,16.53
2018-03-24T19:13:54.591Z,16.77
2018-03-24T19:16:22.252Z,15.73
2018-03-24T19:18:49.842Z,16.67
2018-03-24T19:21:17.414Z,16.57
2018-03-24T19:23:44.965Z,15.50
2018-03-24T19:26:12.538Z,16.23
2018-03-24T19:28:40.089Z,21.07
2018-03-24T19:31:08.420Z,20.53
2018-03-24T19:33:35.980Z,19.50
2018-03-24T19:36:03.581Z,19.70
2018-03-24T19:38:31.134Z,19.47
2018-03-24T19:40:58.799Z,18.37
2018-03-24T19:43:26.342Z,19.33
2018-03-24T19:45:54.673Z,20.40
2018-03-24T19:48:22.221Z,20.07
2018-03-24T19:50:49.849Z,19.33
2018-03-24T19:53:17.397Z,18.87
2018-03-24T19:55:44.958Z,18.57
2018-03-24T19:58:12.508Z,20.77
2018-03-24T20:00:40.085Z,17.17
2018-03-24T20:03:07.637Z,17.13
2018-03-24T20:05:35.193Z,16.67
2018-03-24T20:08:03.533Z,18.67
2018-03-24T20:10:31.388Z,17.43
2018-03-24T20:12:59.101Z,20.13
2018-03-24T20:15:26.649Z,20.20
2018-03-24T20:17:54.213Z,17.97
2018-03-24T20:20:21.868Z,18.83
2018-03-24T20:22:50.205Z,19.00
2018-03-24T20:25:17.757Z,19.50
2018-03-24T20:27:45.321Z,19.10
2018-03-24T20:30:12.898Z,17.50
2018-03-24T20:32:40.478Z,17.60
2018-03-24T20:35:08.051Z,18.50
2018-03-24T20:37:35.853Z,19.30
2018-03-24T20:40:03.434Z,19.10
2018-03-24T20:42:31.001Z,17.90
2018-03-24T20:44:58.554Z,17.83
2018-03-24T20:47:26.149Z,21.20
2018-03-24T20:49:53.693Z,20.03
2018-03-24T20:52:21.257Z,19.07
2018-03-24T20:54:48.827Z,19.70
2018-03-24T20:57:16.732Z,20.90
2018-03-24T20:59:44.565Z,20.03
2018-03-24T21:02:12.118Z,20.00
2018-03-24T21:04:40.680Z,20.33
2018-03-24T21:07:09.232Z,19.33
2018-03-24T21:09:36.998Z,21.00
2018-03-24T21:12:05.667Z,19.30
2018-03-24T21:14:33.567Z,20.40
2018-03-24T21:17:01.426Z,21.63
2018-03-24T21:19:29.958Z,19.50
2018-03-24T21:21:57.780Z,21.00
2018-03-24T21:24:26.276Z,20.20
2018-03-24T21:26:54.901Z,22.07
2018-03-24T21:29:22.759Z,23.53
2018-03-24T21:31:51.330Z,23.73
2018-03-24T21:34:19.887Z,25.10
2018-03-24T21:36:47.707Z,22.57
2018-03-24T21:39:16.145Z,23.77
2018-03-24T21:41:43.907Z,22.00
2018-03-24T21:44:11.692Z,22.60
2018-03-24T21:46:39.505Z,25.63
2018-03-24T21:49:07.300Z,30.63
2018-03-24T21:51:35.853Z,26.97
2018-03-24T21:54:03.700Z,25.83
2018-03-24T21:56:31.437Z,25.60
2018-03-24T21:58:59.761Z,25.43
2018-03-24T22:01:28.344Z,22.20
2018-03-24T22:03:56.178Z,27.87
2018-03-24T22:06:23.903Z,25.57
2018-03-24T22:08:52.559Z,25.20
2018-03-24T22:11:20.395Z,26.10
2018-03-24T22:13:48.988Z,22.97
2018-03-24T22:16:16.890Z,24.40
2018-03-24T22:18:44.637Z,24.57
2018-03-24T22:21:12.577Z,23.27
2018-03-24T22:23:40.419Z,24.53
2018-03-24T22:26:09.015Z,23.60
2018-03-24T22:28:36.759Z,21.83
2018-03-24T22:31:04.355Z,22.70
2018-03-24T22:33:31.900Z,21.07
2018-03-24T22:35:59.468Z,22.03
2018-03-24T22:38:27.012Z,19.90
2018-03-24T22:40:55.258Z,20.57
2018-03-24T22:43:22.804Z,19.33
2018-03-24T22:45:50.369Z,20.37
2018-03-24T22:48:17.909Z,24.30
2018-03-24T22:50:45.472Z,23.60
2018-03-24T22:53:13.013Z,20.53
2018-03-24T22:55:40.585Z,21.60
2018-03-24T22:58:08.902Z,19.50
2018-03-24T23:00:36.472Z,19.93
2018-03-24T23:03:04.026Z,22.43
2018-03-24T23:05:32.342Z,21.17
2018-03-24T23:07:59.960Z,21.23
2018-03-24T23:10:27.514Z,19.20
2018-03-24T23:12:55.083Z,20.60
2018-03-24T23:15:22.675Z,19.43
2018-03-24T23:17:50.262Z,19.33
2018-03-24T23:20:17.804Z,23.30
2018-03-24T23:22:45.384Z,20.40
2018-03-24T23:25:12.937Z,22.50
2018-03-24T23:27:40.525Z,22.00
2018-03-24T23:30:08.073Z,22.10
2018-03-24T23:32:35.621Z,21.27
2018-03-24T23:35:03.190Z,20.23
2018-03-24T23:37:31.500Z,20.83
2018-03-24T23:39:59.110Z,20.63
2018-03-24T23:42:26.643Z,18.13
2018-03-24T23:44:54.210Z,19.27
2018-03-24T23:47:21.753Z,21.50
2018-03-24T23:49:50.092Z,21.57
2018-03-24T23:52:17.637Z,21.37
2018-03-24T23:54:45.210Z,20.70
2018-03-24T23:57:12.774Z,23.70
2018-03-24T23:59:40.378Z,24.03
